METAR Data
IDs: Format: Raw Decoded Include TAF

Data at: 0846 UTC 03 Aug 2021

LIEE 030820Z 18007KT 150V220 9999 -RA VCSH FEW055 25/21 Q1016